Time;durP1;ratioP1;P1;durP2;ratioP2;P2;SDS_P1;SDS_P2;PMS_P1;PMS_P2;Temp;Humidity;BMP_temperature;BMP_pressure;BME280_temperature;BME280_humidity;BME280_pressure;Samples;Min_cycle;Max_cycle;Signal;HPM_P1;HPM_P2
2023/04/24 00:00:37;0.00;0.00;0.62;0.00;0.00;0.62;1.60;0.97;;;27.00;23.80;;;;;;2275862;60;20400;-63
2023/04/24 00:03:23;0.00;0.00;0.62;0.00;0.00;0.62;1.60;0.90;;;27.00;23.30;;;;;;2275963;60;20535;-64
2023/04/24 00:06:08;0.00;0.00;0.62;0.00;0.00;0.62;1.47;0.97;;;27.00;23.30;;;;;;2276199;60;20393;-64
2023/04/24 00:08:53;0.00;0.00;0.62;0.00;0.00;0.62;1.73;1.03;;;27.00;23.30;;;;;;2275797;60;20476;-64
2023/04/24 00:11:38;0.00;0.00;0.62;0.00;0.00;0.62;1.67;1.10;;;27.00;23.30;;;;;;2275595;60;20414;-64
2023/04/24 00:14:23;0.00;0.00;0.62;0.00;0.00;0.62;1.30;0.80;;;27.00;23.30;;;;;;2276081;60;20388;-64
2023/04/24 00:17:07;0.00;0.00;0.62;0.00;0.00;0.62;1.60;1.10;;;27.00;23.30;;;;;;2276172;60;20357;-64
2023/04/24 00:19:58;0.00;0.00;0.62;0.00;0.00;0.62;1.77;1.07;;;27.00;23.30;;;;;;2275509;60;20787;-64
2023/04/24 00:22:43;0.00;0.00;0.62;0.00;0.00;0.62;1.50;0.90;;;27.00;23.30;;;;;;2276225;60;20361;-63
2023/04/24 00:25:29;0.00;0.00;0.62;0.00;0.00;0.62;1.40;0.90;;;27.00;23.30;;;;;;2275727;60;20377;-65
2023/04/24 00:28:13;0.00;0.00;0.62;0.00;0.00;0.62;1.47;0.90;;;27.00;23.30;;;;;;2276024;60;20552;-63
2023/04/24 00:30:59;0.00;0.00;0.62;0.00;0.00;0.62;1.50;0.90;;;26.90;23.30;;;;;;2275220;60;20430;-64
2023/04/24 00:33:44;0.00;0.00;0.62;0.00;0.00;0.62;1.40;0.80;;;26.90;23.30;;;;;;2275503;60;20756;-64
2023/04/24 00:36:28;0.00;0.00;0.62;0.00;0.00;0.62;1.80;1.10;;;26.90;23.30;;;;;;2276010;60;20384;-64
2023/04/24 00:39:13;0.00;0.00;0.62;0.00;0.00;0.62;1.30;0.60;;;27.00;23.30;;;;;;2275109;60;20381;-63
2023/04/24 00:42:01;0.00;0.00;0.62;0.00;0.00;0.62;1.50;0.90;;;27.00;23.30;;;;;;2275482;60;20385;-64
2023/04/24 00:44:46;0.00;0.00;0.62;0.00;0.00;0.62;1.50;0.90;;;27.00;23.30;;;;;;2275528;60;20405;-64
2023/04/24 00:47:33;0.00;0.00;0.62;0.00;0.00;0.62;1.40;0.90;;;27.00;23.30;;;;;;2275771;60;21125;-64
2023/04/24 00:50:19;0.00;0.00;0.62;0.00;0.00;0.62;1.40;0.87;;;27.00;23.30;;;;;;2275194;60;20496;-64
2023/04/24 00:53:04;0.00;0.00;0.62;0.00;0.00;0.62;1.70;1.00;;;27.00;23.30;;;;;;2275875;60;20391;-63
2023/04/24 00:55:50;0.00;0.00;0.62;0.00;0.00;0.62;1.60;1.00;;;27.00;23.30;;;;;;2275064;60;20385;-64
2023/04/24 00:58:36;0.00;0.00;0.62;0.00;0.00;0.62;1.60;1.00;;;26.90;23.30;;;;;;2276072;60;20453;-64
2023/04/24 01:01:21;0.00;0.00;0.62;0.00;0.00;0.62;1.50;0.97;;;26.90;23.30;;;;;;2275924;60;20376;-64
2023/04/24 01:04:07;0.00;0.00;0.62;0.00;0.00;0.62;1.87;0.93;;;26.90;23.30;;;;;;2275634;60;20408;-64
2023/04/24 01:06:52;0.00;0.00;0.62;0.00;0.00;0.62;1.50;0.93;;;26.90;23.30;;;;;;2275980;60;20369;-63
2023/04/24 01:09:40;0.00;0.00;0.62;0.00;0.00;0.62;1.93;1.20;;;26.90;23.30;;;;;;2275313;60;20855;-63
2023/04/24 01:12:25;0.00;0.00;0.62;0.00;0.00;0.62;1.67;1.00;;;26.90;23.30;;;;;;2275618;60;20427;-64
2023/04/24 01:15:11;0.00;0.00;0.62;0.00;0.00;0.62;2.10;1.40;;;26.90;23.30;;;;;;2275447;60;20393;-68
2023/04/24 01:17:56;0.00;0.00;0.62;0.00;0.00;0.62;1.90;1.03;;;26.90;23.30;;;;;;2275469;60;20645;-63
2023/04/24 01:20:44;0.00;0.00;0.62;0.00;0.00;0.62;1.40;0.90;;;26.90;23.80;;;;;;2276134;60;20402;-64
2023/04/24 01:23:30;0.00;0.00;0.62;0.00;0.00;0.62;1.50;0.83;;;26.90;23.30;;;;;;2276194;60;20361;-64
2023/04/24 01:26:19;0.00;0.00;0.62;0.00;0.00;0.62;1.90;1.10;;;26.90;23.30;;;;;;2276150;60;20365;-65
2023/04/24 01:29:05;0.00;0.00;0.62;0.00;0.00;0.62;1.50;0.90;;;26.90;23.30;;;;;;2276151;60;20423;-64
2023/04/24 01:31:50;0.00;0.00;0.62;0.00;0.00;0.62;1.50;1.00;;;26.90;23.30;;;;;;2276429;60;20385;-64
2023/04/24 01:34:35;0.00;0.00;0.62;0.00;0.00;0.62;1.67;1.13;;;26.90;23.30;;;;;;2273092;60;20407;-64
2023/04/24 01:37:19;0.00;0.00;0.62;0.00;0.00;0.62;1.53;1.00;;;26.90;23.30;;;;;;2276249;60;20368;-64
2023/04/24 01:40:07;0.00;0.00;0.62;0.00;0.00;0.62;1.70;0.90;;;26.90;23.30;;;;;;2275240;60;20385;-68
2023/04/24 01:42:52;0.00;0.00;0.62;0.00;0.00;0.62;1.50;1.03;;;26.80;23.20;;;;;;2275974;60;20365;-65
2023/04/24 01:45:37;0.00;0.00;0.62;0.00;0.00;0.62;1.67;1.07;;;26.90;23.30;;;;;;2276622;60;20839;-63
2023/04/24 01:48:22;0.00;0.00;0.62;0.00;0.00;0.62;1.50;0.90;;;26.90;23.30;;;;;;2275536;60;20496;-64
2023/04/24 01:51:08;0.00;0.00;0.62;0.00;0.00;0.62;1.50;0.90;;;26.80;23.20;;;;;;2275709;60;20842;-64
2023/04/24 01:53:53;0.00;0.00;0.62;0.00;0.00;0.62;1.57;1.10;;;26.90;23.30;;;;;;2276289;60;20877;-64
2023/04/24 01:56:42;0.00;0.00;0.62;0.00;0.00;0.62;1.50;0.90;;;26.90;23.30;;;;;;2276243;60;20776;-64
2023/04/24 01:59:28;0.00;0.00;0.62;0.00;0.00;0.62;1.50;0.90;;;26.90;23.30;;;;;;2275664;60;20397;-67
2023/04/24 02:02:13;0.00;0.00;0.62;0.00;0.00;0.62;1.50;0.80;;;26.80;23.20;;;;;;2276293;60;20373;-64
2023/04/24 02:04:58;0.00;0.00;0.62;0.00;0.00;0.62;1.50;1.00;;;26.80;23.20;;;;;;2276348;60;20499;-66
2023/04/24 02:07:43;0.00;0.00;0.62;0.00;0.00;0.62;1.53;0.97;;;26.80;23.20;;;;;;2276621;60;20385;-64
2023/04/24 02:10:28;0.00;0.00;0.62;0.00;0.00;0.62;1.93;1.03;;;26.80;23.20;;;;;;2275690;60;20865;-64
2023/04/24 02:13:14;0.00;0.00;0.62;0.00;0.00;0.62;1.30;0.80;;;26.80;23.20;;;;;;2276680;60;20992;-64
2023/04/24 02:15:58;0.00;0.00;0.62;0.00;0.00;0.62;1.70;1.10;;;26.80;23.20;;;;;;2275917;60;20408;-64
2023/04/24 02:18:43;0.00;0.00;0.62;0.00;0.00;0.62;1.70;0.87;;;26.80;23.20;;;;;;2276106;60;20944;-64
2023/04/24 02:21:28;0.00;0.00;0.62;0.00;0.00;0.62;1.60;1.10;;;26.80;23.20;;;;;;2276460;60;20361;-64
2023/04/24 02:24:13;0.00;0.00;0.62;0.00;0.00;0.62;1.43;0.90;;;26.80;23.20;;;;;;2276313;60;20393;-64
2023/04/24 02:26:57;0.00;0.00;0.62;0.00;0.00;0.62;1.40;0.80;;;26.80;23.20;;;;;;2276161;60;20360;-69
2023/04/24 02:29:44;0.00;0.00;0.62;0.00;0.00;0.62;1.87;1.10;;;26.80;23.20;;;;;;2275927;60;20466;-63
2023/04/24 02:32:30;0.00;0.00;0.62;0.00;0.00;0.62;1.40;0.80;;;26.80;23.20;;;;;;2276037;60;20377;-64
2023/04/24 02:35:15;0.00;0.00;0.62;0.00;0.00;0.62;1.40;0.80;;;26.80;23.20;;;;;;2276674;60;20362;-65
2023/04/24 02:38:00;0.00;0.00;0.62;0.00;0.00;0.62;1.30;0.80;;;26.80;23.20;;;;;;2276118;60;20773;-64
2023/04/24 02:40:45;0.00;0.00;0.62;0.00;0.00;0.62;1.40;0.80;;;26.80;23.20;;;;;;2275874;60;20389;-64
2023/04/24 02:43:30;0.00;0.00;0.62;0.00;0.00;0.62;1.50;0.90;;;26.80;23.20;;;;;;2276479;60;20361;-63
2023/04/24 02:46:16;0.00;0.00;0.62;0.00;0.00;0.62;1.53;0.90;;;26.80;23.20;;;;;;2275849;60;20766;-64
2023/04/24 02:49:01;0.00;0.00;0.62;0.00;0.00;0.62;1.43;0.80;;;26.80;23.20;;;;;;2276165;60;20433;-64
2023/04/24 02:51:46;0.00;0.00;0.62;0.00;0.00;0.62;1.50;0.90;;;26.80;23.20;;;;;;2276463;60;20418;-68
2023/04/24 02:54:31;0.00;0.00;0.62;0.00;0.00;0.62;1.50;0.80;;;26.80;23.20;;;;;;2275181;60;20369;-64
2023/04/24 02:57:16;0.00;0.00;0.62;0.00;0.00;0.62;1.40;0.80;;;26.80;23.20;;;;;;2276435;60;20401;-64
2023/04/24 03:00:02;0.00;0.00;0.62;0.00;0.00;0.62;1.60;0.87;;;26.80;23.20;;;;;;2275415;60;20375;-64
2023/04/24 03:02:49;0.00;0.00;0.62;0.00;0.00;0.62;1.40;0.83;;;26.80;23.20;;;;;;2276069;60;20419;-64
2023/04/24 03:05:34;0.00;0.00;0.62;0.00;0.00;0.62;1.40;0.77;;;26.70;23.20;;;;;;2275950;60;20365;-64
2023/04/24 03:08:19;0.00;0.00;0.62;0.00;0.00;0.62;1.40;0.80;;;26.80;23.20;;;;;;2275804;60;20426;-64
2023/04/24 03:11:04;0.00;0.00;0.62;0.00;0.00;0.62;1.30;0.70;;;26.80;23.20;;;;;;2275775;60;20361;-64
2023/04/24 03:13:49;0.00;0.00;0.62;0.00;0.00;0.62;1.43;0.80;;;26.80;23.20;;;;;;2276169;60;20404;-64
2023/04/24 03:16:34;0.00;0.00;0.62;0.00;0.00;0.62;1.30;0.70;;;26.70;23.20;;;;;;2275727;60;20357;-63
2023/04/24 03:19:20;0.00;0.00;0.62;0.00;0.00;0.62;1.50;0.90;;;26.70;23.20;;;;;;2275953;60;20398;-64
2023/04/24 03:22:26;0.00;0.00;0.62;0.00;0.00;0.62;1.40;0.70;;;26.70;23.20;;;;;;2275420;60;20358;-64
2023/04/24 03:25:11;0.00;0.00;0.62;0.00;0.00;0.62;1.30;0.70;;;26.70;23.20;;;;;;2276143;60;20357;-64
2023/04/24 03:27:56;0.00;0.00;0.62;0.00;0.00;0.62;1.53;0.80;;;26.70;23.20;;;;;;2275719;60;20450;-63
2023/04/24 03:30:52;0.00;0.00;0.62;0.00;0.00;0.62;1.40;0.80;;;26.70;23.20;;;;;;2275225;60;20400;-64
2023/04/24 03:33:38;0.00;0.00;0.62;0.00;0.00;0.62;1.73;0.80;;;26.70;23.20;;;;;;2275873;60;20440;-64
2023/04/24 03:36:24;0.00;0.00;0.62;0.00;0.00;0.62;1.70;0.70;;;26.70;23.20;;;;;;2276275;60;20890;-64
2023/04/24 03:39:08;0.00;0.00;0.62;0.00;0.00;0.62;1.47;0.73;;;26.70;23.20;;;;;;2275075;60;20389;-64
2023/04/24 03:41:55;0.00;0.00;0.62;0.00;0.00;0.62;1.33;0.70;;;26.70;23.20;;;;;;2275772;60;20353;-63
2023/04/24 03:44:45;0.00;0.00;0.62;0.00;0.00;0.62;1.60;0.90;;;26.70;23.20;;;;;;2275343;60;20356;-62
2023/04/24 03:47:30;0.00;0.00;0.62;0.00;0.00;0.62;1.47;0.90;;;26.70;23.20;;;;;;2275570;60;20361;-64
2023/04/24 03:50:17;0.00;0.00;0.62;0.00;0.00;0.62;1.30;0.80;;;26.70;23.20;;;;;;2299745;39;20405;-64
2023/04/24 03:53:04;0.00;0.00;0.62;0.00;0.00;0.62;1.40;0.70;;;26.70;23.20;;;;;;2271380;61;20460;-67
2023/04/24 03:55:55;0.00;0.00;0.62;0.00;0.00;0.62;1.50;1.00;;;26.60;23.10;;;;;;2271649;61;20409;-64
2023/04/24 03:58:40;0.00;0.00;0.62;0.00;0.00;0.62;1.40;0.80;;;26.70;23.20;;;;;;2271748;61;20469;-62
2023/04/24 04:01:25;0.00;0.00;0.62;0.00;0.00;0.62;1.30;0.70;;;26.70;23.20;;;;;;2271128;61;21097;-64
2023/04/24 04:04:16;0.00;0.00;0.62;0.00;0.00;0.62;1.20;0.70;;;26.70;23.20;;;;;;2271721;61;20362;-63
2023/04/24 04:07:02;0.00;0.00;0.62;0.00;0.00;0.62;1.20;0.70;;;26.70;23.20;;;;;;2271390;61;20358;-63
2023/04/24 04:09:50;0.00;0.00;0.62;0.00;0.00;0.62;1.50;0.60;;;26.60;23.10;;;;;;2270962;61;20394;-62
2023/04/24 04:12:35;0.00;0.00;0.62;0.00;0.00;0.62;1.30;0.70;;;26.60;23.10;;;;;;2272079;61;20778;-64
2023/04/24 04:15:20;0.00;0.00;0.62;0.00;0.00;0.62;1.37;0.90;;;26.60;23.10;;;;;;2271700;61;20491;-64
2023/04/24 04:18:05;0.00;0.00;0.62;0.00;0.00;0.62;1.60;0.87;;;26.60;23.10;;;;;;2272049;60;20382;-64
2023/04/24 04:20:50;0.00;0.00;0.62;0.00;0.00;0.62;1.33;0.70;;;26.60;23.10;;;;;;2271672;61;20362;-63
2023/04/24 04:23:35;0.00;0.00;0.62;0.00;0.00;0.62;1.50;1.07;;;26.60;23.10;;;;;;2270981;61;20858;-68
2023/04/24 04:26:32;0.00;0.00;0.62;0.00;0.00;0.62;1.27;0.70;;;26.60;23.10;;;;;;2271879;61;20771;-64
2023/04/24 04:29:22;0.00;0.00;0.62;0.00;0.00;0.62;1.30;0.80;;;26.60;23.10;;;;;;2270875;61;20445;-64
2023/04/24 04:32:08;0.00;0.00;0.62;0.00;0.00;0.62;1.40;0.80;;;26.60;23.10;;;;;;2271402;60;20362;-63
2023/04/24 04:34:53;0.00;0.00;0.62;0.00;0.00;0.62;1.20;0.70;;;26.60;23.10;;;;;;2271558;61;20358;-64
2023/04/24 04:37:40;0.00;0.00;0.62;0.00;0.00;0.62;1.40;0.70;;;26.60;23.10;;;;;;2271104;60;20377;-65
2023/04/24 04:40:47;0.00;0.00;0.62;0.00;0.00;0.62;1.30;0.70;;;26.60;23.10;;;;;;2271296;61;20388;-64
2023/04/24 04:43:34;0.00;0.00;0.62;0.00;0.00;0.62;1.30;0.73;;;26.60;23.10;;;;;;2271748;61;20928;-64
2023/04/24 04:46:19;0.00;0.00;0.62;0.00;0.00;0.62;1.83;0.90;;;26.60;23.10;;;;;;2271878;60;20431;-64
2023/04/24 04:49:39;0.00;0.00;0.62;0.00;0.00;0.62;1.40;0.80;;;26.60;23.10;;;;;;2270190;61;20394;-65
2023/04/24 04:52:28;0.00;0.00;0.62;0.00;0.00;0.62;1.57;0.90;;;26.60;23.10;;;;;;2268121;60;20883;-65
2023/04/24 04:55:25;0.00;0.00;0.62;0.00;0.00;0.62;1.60;1.00;;;26.60;23.10;;;;;;2272424;61;20374;-63
2023/04/24 04:58:26;0.00;0.00;0.62;0.00;0.00;0.62;1.30;0.70;;;26.60;23.10;;;;;;2272247;61;20358;-65
2023/04/24 05:01:17;0.00;0.00;0.62;0.00;0.00;0.62;1.33;0.80;;;26.60;23.10;;;;;;2271891;60;20369;-64
2023/04/24 05:04:05;0.00;0.00;0.62;0.00;0.00;0.62;1.40;0.90;;;26.60;23.10;;;;;;2272189;61;20366;-62
2023/04/24 05:06:51;0.00;0.00;0.62;0.00;0.00;0.62;1.30;0.70;;;26.60;23.10;;;;;;2272040;61;20871;-64
2023/04/24 05:09:37;0.00;0.00;0.62;0.00;0.00;0.62;1.40;0.80;;;26.50;23.00;;;;;;2271832;61;20390;-64
2023/04/24 05:12:24;0.00;0.00;0.62;0.00;0.00;0.62;1.33;0.73;;;26.60;23.10;;;;;;2272328;61;20397;-64
2023/04/24 05:15:11;0.00;0.00;0.62;0.00;0.00;0.62;1.40;0.90;;;26.50;23.00;;;;;;2271689;60;20373;-63
2023/04/24 05:17:57;0.00;0.00;0.62;0.00;0.00;0.62;1.30;0.70;;;26.50;23.00;;;;;;2272797;61;20362;-64
2023/04/24 05:20:43;0.00;0.00;0.62;0.00;0.00;0.62;1.60;0.90;;;26.50;23.00;;;;;;2271368;61;20362;-64
2023/04/24 05:23:29;0.00;0.00;0.62;0.00;0.00;0.62;1.57;0.97;;;26.50;23.00;;;;;;2271921;61;20370;-64
2023/04/24 05:26:15;0.00;0.00;0.62;0.00;0.00;0.62;1.63;1.00;;;26.50;23.00;;;;;;2272418;61;20367;-63
2023/04/24 05:29:00;0.00;0.00;0.62;0.00;0.00;0.62;1.40;0.83;;;26.50;23.00;;;;;;2271424;61;20421;-64
2023/04/24 05:31:45;0.00;0.00;0.62;0.00;0.00;0.62;1.40;0.80;;;26.50;23.00;;;;;;2272120;61;20500;-63
2023/04/24 05:34:31;0.00;0.00;0.62;0.00;0.00;0.62;1.40;0.73;;;26.50;23.10;;;;;;2272080;60;20944;-64
2023/04/24 05:37:16;0.00;0.00;0.62;0.00;0.00;0.62;1.63;0.80;;;26.50;23.00;;;;;;2272130;60;20358;-63
2023/04/24 05:40:01;0.00;0.00;0.62;0.00;0.00;0.62;1.57;0.87;;;26.50;23.00;;;;;;2271821;61;20466;-67
2023/04/24 05:42:46;0.00;0.00;0.62;0.00;0.00;0.62;1.30;0.80;;;26.50;23.00;;;;;;2271962;60;20362;-63
2023/04/24 05:45:31;0.00;0.00;0.62;0.00;0.00;0.62;1.53;0.90;;;26.50;23.00;;;;;;2272585;61;20423;-62
2023/04/24 05:48:16;0.00;0.00;0.62;0.00;0.00;0.62;1.50;1.00;;;26.50;23.00;;;;;;2272178;61;20412;-65
2023/04/24 05:51:02;0.00;0.00;0.62;0.00;0.00;0.62;1.67;1.00;;;26.50;23.00;;;;;;2271299;60;20415;-64
2023/04/24 05:53:47;0.00;0.00;0.62;0.00;0.00;0.62;1.40;0.80;;;26.40;23.00;;;;;;2271846;61;20427;-63
2023/04/24 05:56:32;0.00;0.00;0.62;0.00;0.00;0.62;1.37;0.80;;;26.50;23.00;;;;;;2272580;60;20357;-62
2023/04/24 05:59:19;0.00;0.00;0.62;0.00;0.00;0.62;1.70;1.20;;;26.50;23.00;;;;;;2271163;60;20452;-63
2023/04/24 06:02:05;0.00;0.00;0.62;0.00;0.00;0.62;1.53;1.13;;;26.50;23.00;;;;;;2272315;61;21030;-64
2023/04/24 06:04:50;0.00;0.00;0.62;0.00;0.00;0.62;1.50;1.00;;;26.50;23.10;;;;;;2271796;60;20407;-62
2023/04/24 06:07:37;0.00;0.00;0.62;0.00;0.00;0.62;1.90;1.30;;;26.50;23.00;;;;;;2271971;60;20371;-69
2023/04/24 06:10:25;0.00;0.00;0.62;0.00;0.00;0.62;2.07;1.30;;;26.50;23.00;;;;;;2271526;61;20414;-65
2023/04/24 06:13:11;0.00;0.00;0.62;0.00;0.00;0.62;1.90;1.30;;;26.50;23.10;;;;;;2271886;61;20404;-62
2023/04/24 06:15:59;0.00;0.00;0.62;0.00;0.00;0.62;1.70;1.10;;;26.50;23.00;;;;;;2271855;61;20417;-64
2023/04/24 06:18:52;0.00;0.00;0.62;0.00;0.00;0.62;2.57;1.37;;;26.50;23.00;;;;;;2276484;39;20684;-64
2023/04/24 06:21:38;0.00;0.00;0.62;0.00;0.00;0.62;2.00;1.27;;;26.50;23.00;;;;;;2268894;61;20763;-64
2023/04/24 06:24:29;0.00;0.00;0.62;0.00;0.00;0.62;2.37;1.80;;;26.40;23.00;;;;;;2272387;61;20388;-64
2023/04/24 06:27:13;0.00;0.00;0.62;0.00;0.00;0.62;2.10;1.60;;;26.50;23.00;;;;;;2272231;61;20376;-64
2023/04/24 06:29:59;0.00;0.00;0.62;0.00;0.00;0.62;2.10;1.70;;;26.50;23.00;;;;;;2271650;61;20410;-64
2023/04/24 06:32:43;0.00;0.00;0.62;0.00;0.00;0.62;1.83;1.23;;;26.50;23.00;;;;;;2269228;61;20455;-62
2023/04/24 06:35:28;0.00;0.00;0.62;0.00;0.00;0.62;2.10;1.73;;;26.50;23.00;;;;;;2272228;61;20389;-62
2023/04/24 06:38:13;0.00;0.00;0.62;0.00;0.00;0.62;2.30;1.90;;;26.50;23.00;;;;;;2272298;61;20359;-62
2023/04/24 06:40:59;0.00;0.00;0.62;0.00;0.00;0.62;2.83;2.30;;;26.50;23.00;;;;;;2272046;61;20338;-64
2023/04/24 06:43:44;0.00;0.00;0.62;0.00;0.00;0.62;3.00;2.40;;;26.50;23.00;;;;;;2272066;61;20891;-62
2023/04/24 06:46:30;0.00;0.00;0.62;0.00;0.00;0.62;2.57;2.37;;;26.50;23.00;;;;;;2272613;61;20393;-64
2023/04/24 06:49:15;0.00;0.00;0.62;0.00;0.00;0.62;3.17;2.60;;;26.40;23.00;;;;;;2271948;61;20964;-62
2023/04/24 06:52:00;0.00;0.00;0.62;0.00;0.00;0.62;2.87;2.37;;;26.50;23.00;;;;;;2272284;61;20423;-63
2023/04/24 06:54:45;0.00;0.00;0.62;0.00;0.00;0.62;4.30;3.13;;;26.50;23.00;;;;;;2272282;61;20412;-64
2023/04/24 06:57:31;0.00;0.00;0.62;0.00;0.00;0.62;3.77;2.90;;;26.40;23.00;;;;;;2272164;61;20415;-64
2023/04/24 07:00:17;0.00;0.00;0.62;0.00;0.00;0.62;4.00;3.60;;;26.40;23.00;;;;;;2271758;61;20466;-63
2023/04/24 07:03:02;0.00;0.00;0.62;0.00;0.00;0.62;4.50;3.50;;;26.50;23.00;;;;;;2272433;61;20370;-63
2023/04/24 07:05:49;0.00;0.00;0.62;0.00;0.00;0.62;4.23;3.80;;;26.40;23.00;;;;;;2271800;61;20790;-64
2023/04/24 07:08:33;0.00;0.00;0.62;0.00;0.00;0.62;4.70;4.20;;;26.40;23.00;;;;;;2272515;61;20382;-63
2023/04/24 07:11:18;0.00;0.00;0.62;0.00;0.00;0.62;5.83;5.00;;;26.40;23.00;;;;;;2272262;61;20440;-63
2023/04/24 07:14:04;0.00;0.00;0.62;0.00;0.00;0.62;5.87;5.10;;;26.40;23.00;;;;;;2271685;61;20366;-63
2023/04/24 07:16:49;0.00;0.00;0.62;0.00;0.00;0.62;7.47;6.70;;;26.40;23.00;;;;;;2272260;60;20404;-62
2023/04/24 07:19:37;0.00;0.00;0.62;0.00;0.00;0.62;7.20;6.40;;;26.40;23.00;;;;;;2272370;60;20382;-62
2023/04/24 07:22:22;0.00;0.00;0.62;0.00;0.00;0.62;7.43;6.40;;;26.40;23.00;;;;;;2276074;60;20361;-64
2023/04/24 07:25:08;0.00;0.00;0.62;0.00;0.00;0.62;9.40;7.37;;;26.40;23.10;;;;;;2276379;60;20357;-62
2023/04/24 07:27:53;0.00;0.00;0.62;0.00;0.00;0.62;7.63;6.50;;;26.40;23.00;;;;;;2275043;60;20437;-63
2023/04/24 07:30:39;0.00;0.00;0.62;0.00;0.00;0.62;7.73;6.93;;;26.40;23.00;;;;;;2275874;60;20455;-61
2023/04/24 07:33:25;0.00;0.00;0.62;0.00;0.00;0.62;9.17;7.37;;;26.40;23.00;;;;;;2276294;60;20408;-62
2023/04/24 07:36:15;0.00;0.00;0.62;0.00;0.00;0.62;9.40;8.40;;;26.40;23.00;;;;;;2276120;60;20454;-63
2023/04/24 07:39:00;0.00;0.00;0.62;0.00;0.00;0.62;10.17;9.10;;;26.40;23.00;;;;;;2275902;60;20514;-62
2023/04/24 07:41:44;0.00;0.00;0.62;0.00;0.00;0.62;10.57;9.57;;;26.40;23.00;;;;;;2276136;60;20369;-63
2023/04/24 07:44:29;0.00;0.00;0.62;0.00;0.00;0.62;10.80;9.70;;;26.50;23.10;;;;;;2275846;60;20365;-62
2023/04/24 07:47:15;0.00;0.00;0.62;0.00;0.00;0.62;10.93;9.83;;;26.50;23.10;;;;;;2276310;60;20945;-61
2023/04/24 07:50:00;0.00;0.00;0.62;0.00;0.00;0.62;10.43;9.43;;;26.50;23.00;;;;;;2274741;60;20592;-64
2023/04/24 07:52:45;0.00;0.00;0.62;0.00;0.00;0.62;11.67;10.33;;;26.50;23.10;;;;;;2276258;60;20361;-65
2023/04/24 07:55:31;0.00;0.00;0.62;0.00;0.00;0.62;11.53;10.23;;;26.40;23.00;;;;;;2272779;60;20442;-64
2023/04/24 07:58:15;0.00;0.00;0.62;0.00;0.00;0.62;12.17;10.63;;;26.50;23.00;;;;;;2276005;60;20413;-64
2023/04/24 08:01:00;0.00;0.00;0.62;0.00;0.00;0.62;12.83;11.43;;;26.40;23.00;;;;;;2275977;60;20365;-64
2023/04/24 08:03:47;0.00;0.00;0.62;0.00;0.00;0.62;12.27;10.97;;;26.50;23.00;;;;;;2275872;60;20365;-65
2023/04/24 08:06:32;0.00;0.00;0.62;0.00;0.00;0.62;12.80;11.50;;;26.50;23.00;;;;;;2276037;60;20397;-62
2023/04/24 08:09:16;0.00;0.00;0.62;0.00;0.00;0.62;13.20;11.77;;;26.40;23.00;;;;;;2272616;60;20408;-64
2023/04/24 08:12:02;0.00;0.00;0.62;0.00;0.00;0.62;13.53;11.60;;;26.40;23.00;;;;;;2275931;60;20361;-62
2023/04/24 08:14:47;0.00;0.00;0.62;0.00;0.00;0.62;13.33;12.03;;;26.40;23.00;;;;;;2273054;60;20548;-63
2023/04/24 08:17:31;0.00;0.00;0.62;0.00;0.00;0.62;12.13;10.93;;;26.40;23.00;;;;;;2273129;60;20410;-64
2023/04/24 08:20:17;0.00;0.00;0.62;0.00;0.00;0.62;14.97;13.57;;;26.50;23.00;;;;;;2272257;60;20393;-62
2023/04/24 08:23:02;0.00;0.00;0.62;0.00;0.00;0.62;14.27;12.10;;;26.50;23.00;;;;;;2272893;60;20383;-64
2023/04/24 08:25:46;0.00;0.00;0.62;0.00;0.00;0.62;14.80;13.20;;;26.50;23.00;;;;;;2275913;60;20427;-63
2023/04/24 08:28:31;0.00;0.00;0.62;0.00;0.00;0.62;15.60;13.77;;;26.50;23.00;;;;;;2276033;60;20852;-62
2023/04/24 08:31:15;0.00;0.00;0.62;0.00;0.00;0.62;14.03;12.53;;;26.50;23.00;;;;;;2273332;60;20406;-67
2023/04/24 08:34:01;0.00;0.00;0.62;0.00;0.00;0.62;13.43;12.10;;;26.50;23.00;;;;;;2276570;60;20415;-63
2023/04/24 08:36:47;0.00;0.00;0.62;0.00;0.00;0.62;14.17;12.67;;;26.50;23.00;;;;;;2276952;60;20773;-62
2023/04/24 08:39:32;0.00;0.00;0.62;0.00;0.00;0.62;14.87;13.17;;;26.50;23.00;;;;;;2276428;60;20378;-65
2023/04/24 08:42:19;0.00;0.00;0.62;0.00;0.00;0.62;14.20;12.87;;;26.50;23.00;;;;;;2273286;60;20399;-65
2023/04/24 08:45:06;0.00;0.00;0.62;0.00;0.00;0.62;14.23;12.87;;;26.50;23.00;;;;;;2276601;60;20928;-63
2023/04/24 08:47:53;0.00;0.00;0.62;0.00;0.00;0.62;14.20;12.67;;;26.50;23.10;;;;;;2276765;60;20360;-62
2023/04/24 08:50:41;0.00;0.00;0.62;0.00;0.00;0.62;14.90;13.40;;;26.50;23.00;;;;;;2276033;60;20793;-64
2023/04/24 08:53:27;0.00;0.00;0.62;0.00;0.00;0.62;13.70;12.37;;;26.50;23.00;;;;;;2273580;60;20878;-64
2023/04/24 08:56:13;0.00;0.00;0.62;0.00;0.00;0.62;14.17;12.67;;;26.50;23.00;;;;;;2276605;60;20365;-62
2023/04/24 08:58:58;0.00;0.00;0.62;0.00;0.00;0.62;14.00;12.53;;;26.50;23.00;;;;;;2276549;60;20836;-64
2023/04/24 09:01:44;0.00;0.00;0.62;0.00;0.00;0.62;12.47;11.20;;;26.50;23.00;;;;;;2277005;60;20358;-62
2023/04/24 09:04:29;0.00;0.00;0.62;0.00;0.00;0.62;13.20;11.90;;;26.50;23.00;;;;;;2276327;60;20395;-64
2023/04/24 09:07:17;0.00;0.00;0.62;0.00;0.00;0.62;13.90;12.50;;;26.50;23.00;;;;;;2276940;60;20364;-63
2023/04/24 09:10:06;0.00;0.00;0.62;0.00;0.00;0.62;13.47;11.73;;;26.50;23.00;;;;;;2276404;60;20389;-62
2023/04/24 09:12:52;0.00;0.00;0.62;0.00;0.00;0.62;12.50;11.13;;;26.50;23.00;;;;;;2276523;60;20369;-62
2023/04/24 09:15:38;0.00;0.00;0.62;0.00;0.00;0.62;13.53;12.23;;;26.50;23.00;;;;;;2276982;60;20392;-62
2023/04/24 09:18:23;0.00;0.00;0.62;0.00;0.00;0.62;12.50;11.33;;;26.50;23.10;;;;;;2276400;60;20369;-64
2023/04/24 09:21:09;0.00;0.00;0.62;0.00;0.00;0.62;12.43;11.20;;;26.50;23.00;;;;;;2276327;60;20369;-63
2023/04/24 09:24:02;0.00;0.00;0.62;0.00;0.00;0.62;13.20;11.90;;;26.50;23.00;;;;;;2276825;60;20809;-63
2023/04/24 09:26:57;0.00;0.00;0.62;0.00;0.00;0.62;12.70;11.43;;;26.50;23.00;;;;;;2276149;60;20453;-62
2023/04/24 09:29:54;0.00;0.00;0.62;0.00;0.00;0.62;12.17;10.90;;;26.50;23.00;;;;;;2276312;60;20449;-62
2023/04/24 09:32:40;0.00;0.00;0.62;0.00;0.00;0.62;11.13;10.07;;;26.50;23.00;;;;;;2276678;60;20427;-62
2023/04/24 09:35:25;0.00;0.00;0.62;0.00;0.00;0.62;10.67;9.50;;;26.50;23.00;;;;;;2273342;60;20357;-62
2023/04/24 09:38:10;0.00;0.00;0.62;0.00;0.00;0.62;11.53;10.40;;;26.50;23.00;;;;;;2276935;60;20450;-62
2023/04/24 09:40:55;0.00;0.00;0.62;0.00;0.00;0.62;11.00;9.90;;;26.50;23.00;;;;;;2275823;60;20873;-64
2023/04/24 09:43:41;0.00;0.00;0.62;0.00;0.00;0.62;11.43;10.23;;;26.50;23.00;;;;;;2276799;60;20353;-63
2023/04/24 09:46:34;0.00;0.00;0.62;0.00;0.00;0.62;11.30;10.20;;;26.50;23.00;;;;;;2273528;60;20418;-62
2023/04/24 09:49:24;0.00;0.00;0.62;0.00;0.00;0.62;11.53;10.40;;;26.50;23.00;;;;;;2275616;60;20459;-63
2023/04/24 09:52:11;0.00;0.00;0.62;0.00;0.00;0.62;11.30;10.17;;;26.50;23.00;;;;;;2273538;60;20373;-63
2023/04/24 09:54:55;0.00;0.00;0.62;0.00;0.00;0.62;10.80;9.80;;;26.50;23.00;;;;;;2273017;60;20893;-64
2023/04/24 09:57:49;0.00;0.00;0.62;0.00;0.00;0.62;10.73;9.63;;;26.50;23.00;;;;;;2276501;60;20361;-62
2023/04/24 10:00:36;0.00;0.00;0.62;0.00;0.00;0.62;10.60;9.27;;;26.50;23.00;;;;;;2276309;60;20376;-63
2023/04/24 10:03:20;0.00;0.00;0.62;0.00;0.00;0.62;10.80;9.70;;;26.60;23.10;;;;;;2276283;60;20454;-62
2023/04/24 10:06:08;0.00;0.00;0.62;0.00;0.00;0.62;10.80;9.70;;;26.50;23.00;;;;;;2276656;60;20358;-63
2023/04/24 10:08:53;0.00;0.00;0.62;0.00;0.00;0.62;10.30;9.40;;;26.50;23.00;;;;;;2276414;60;20405;-62
2023/04/24 10:11:42;0.00;0.00;0.62;0.00;0.00;0.62;10.37;9.33;;;26.50;23.00;;;;;;2276389;60;20457;-64
2023/04/24 10:14:27;0.00;0.00;0.62;0.00;0.00;0.62;9.57;8.60;;;26.60;23.10;;;;;;2276611;60;20510;-63
2023/04/24 10:17:14;0.00;0.00;0.62;0.00;0.00;0.62;10.07;9.10;;;26.60;23.10;;;;;;2276301;60;20759;-62
2023/04/24 10:20:01;0.00;0.00;0.62;0.00;0.00;0.62;10.80;9.70;;;26.50;23.00;;;;;;2288601;57;20779;-62
2023/04/24 10:22:49;0.00;0.00;0.62;0.00;0.00;0.62;9.90;8.40;;;26.60;23.10;;;;;;2276823;60;20838;-64
2023/04/24 10:25:36;0.00;0.00;0.62;0.00;0.00;0.62;10.40;9.40;;;26.60;23.10;;;;;;2275159;60;20368;-63
2023/04/24 10:28:24;0.00;0.00;0.62;0.00;0.00;0.62;10.67;9.67;;;26.60;23.10;;;;;;2276655;60;20354;-62
2023/04/24 10:31:10;0.00;0.00;0.62;0.00;0.00;0.62;11.20;9.80;;;26.50;23.00;;;;;;2272702;60;20395;-62
2023/04/24 10:33:58;0.00;0.00;0.62;0.00;0.00;0.62;9.53;8.60;;;26.60;23.10;;;;;;2276326;60;20766;-62
2023/04/24 10:36:48;0.00;0.00;0.62;0.00;0.00;0.62;9.50;8.50;;;26.60;23.10;;;;;;2276388;60;20361;-64
2023/04/24 10:39:34;0.00;0.00;0.62;0.00;0.00;0.62;9.93;8.93;;;26.50;23.00;;;;;;2272706;60;20419;-61
2023/04/24 10:42:20;0.00;0.00;0.62;0.00;0.00;0.62;9.53;8.53;;;26.50;23.00;;;;;;2276565;60;20372;-62
2023/04/24 10:45:06;0.00;0.00;0.62;0.00;0.00;0.62;10.47;9.37;;;26.60;23.10;;;;;;2276350;60;20365;-61
2023/04/24 10:48:01;0.00;0.00;0.62;0.00;0.00;0.62;9.83;8.73;;;26.60;23.10;;;;;;2276013;60;20832;-69
2023/04/24 10:50:52;0.00;0.00;0.62;0.00;0.00;0.62;8.50;7.60;;;26.50;23.00;;;;;;2276071;60;20401;-63
2023/04/24 10:53:37;0.00;0.00;0.62;0.00;0.00;0.62;9.10;8.20;;;26.60;23.10;;;;;;2276386;60;20418;-64